createdAt,value
2023-04-03T00:01:11.902Z,52.90
2023-04-03T00:03:39.664Z,52.70
2023-04-03T00:06:08.037Z,51.81
2023-04-03T00:08:36.264Z,52.29
2023-04-03T00:11:04.724Z,51.63
2023-04-03T00:13:33.313Z,52.21
2023-04-03T00:16:01.095Z,51.28
2023-04-03T00:18:28.780Z,51.63
2023-04-03T00:20:56.300Z,52.11
2023-04-03T00:23:24.655Z,51.61
2023-04-03T00:25:52.936Z,51.83
2023-04-03T00:28:21.349Z,51.66
2023-04-03T00:30:52.301Z,51.31
2023-04-03T00:33:22.659Z,50.38
2023-04-03T00:35:50.473Z,50.55
2023-04-03T00:38:18.617Z,51.26
2023-04-03T00:40:48.652Z,51.37
2023-04-03T00:43:22.887Z,51.61
2023-04-03T00:45:52.893Z,51.36
2023-04-03T00:48:42.074Z,50.86
2023-04-03T00:51:21.423Z,50.76
2023-04-03T00:53:55.994Z,50.80
2023-04-03T00:56:26.355Z,50.42
2023-04-03T00:58:59.891Z,50.43
2023-04-03T01:01:28.976Z,50.74
2023-04-03T01:03:56.788Z,51.36
2023-04-03T01:06:28.262Z,51.18
2023-04-03T01:09:00.314Z,51.28
2023-04-03T01:11:28.232Z,51.18
2023-04-03T01:13:56.074Z,50.84
2023-04-03T01:16:25.252Z,51.09
2023-04-03T01:18:52.895Z,50.72
2023-04-03T01:21:52.400Z,50.05
2023-04-03T01:24:31.314Z,50.54
2023-04-03T01:27:00.376Z,50.40
2023-04-03T01:29:28.099Z,50.15
2023-04-03T01:31:58.272Z,49.58
2023-04-03T01:34:26.533Z,50.17
2023-04-03T01:36:54.470Z,50.48
2023-04-03T01:39:22.624Z,49.90
2023-04-03T01:41:51.125Z,50.78
2023-04-03T01:44:18.788Z,50.84
2023-04-03T01:46:46.288Z,50.86
2023-04-03T01:49:14.070Z,50.40
2023-04-03T01:51:41.656Z,51.20
2023-04-03T01:54:09.454Z,50.64
2023-04-03T01:56:37.172Z,51.07
2023-04-03T01:59:04.655Z,50.69
2023-04-03T02:01:32.094Z,51.03
2023-04-03T02:03:59.835Z,52.16
2023-04-03T02:06:27.963Z,51.19
2023-04-03T02:08:55.430Z,51.11
2023-04-03T02:11:23.172Z,51.97
2023-04-03T02:13:50.674Z,52.77
2023-04-03T02:16:18.143Z,52.89
2023-04-03T02:18:45.916Z,53.13
2023-04-03T02:21:13.414Z,53.21
2023-04-03T02:23:40.849Z,54.33
2023-04-03T02:26:11.839Z,52.43
2023-04-03T02:28:39.352Z,53.20
2023-04-03T02:31:09.612Z,53.88
2023-04-03T02:33:38.855Z,54.07
2023-04-03T02:36:08.891Z,54.21
2023-04-03T02:38:37.594Z,52.75
2023-04-03T02:41:07.480Z,54.15
2023-04-03T02:43:35.606Z,53.83
2023-04-03T02:46:04.751Z,53.84
2023-04-03T02:48:32.920Z,55.52
2023-04-03T02:51:00.301Z,54.82
2023-04-03T02:53:28.073Z,54.32
2023-04-03T02:55:55.540Z,54.21
2023-04-03T02:58:22.914Z,54.51
2023-04-03T03:00:51.229Z,54.44
2023-04-03T03:03:18.610Z,53.65
2023-04-03T03:05:46.303Z,54.06
2023-04-03T03:08:13.969Z,53.72
2023-04-03T03:10:41.405Z,54.57
2023-04-03T03:13:08.817Z,54.40
2023-04-03T03:15:36.511Z,54.58
2023-04-03T03:18:03.987Z,55.04
2023-04-03T03:20:31.441Z,55.03
2023-04-03T03:22:59.234Z,55.23
2023-04-03T03:25:26.636Z,55.35
2023-04-03T03:27:54.024Z,54.91
2023-04-03T03:30:21.892Z,54.67
2023-04-03T03:32:49.481Z,54.25
2023-04-03T03:35:16.972Z,54.20
2023-04-03T03:37:44.669Z,55.28
2023-04-03T03:40:14.010Z,55.12
2023-04-03T03:42:41.479Z,55.61
2023-04-03T03:45:09.909Z,55.02
2023-04-03T03:47:37.620Z,55.20
2023-04-03T03:50:05.764Z,54.45
2023-04-03T03:52:33.487Z,54.19
2023-04-03T03:55:01.023Z,54.06
2023-04-03T03:57:29.789Z,54.45
2023-04-03T03:59:59.027Z,53.22
2023-04-03T04:02:27.202Z,52.58
2023-04-03T04:04:55.042Z,52.03
2023-04-03T04:07:23.196Z,53.21
2023-04-03T04:09:50.789Z,53.75
2023-04-03T04:12:18.476Z,53.97
2023-04-03T04:14:47.663Z,53.20
2023-04-03T04:17:16.518Z,52.79
2023-04-03T04:19:44.478Z,52.99
2023-04-03T04:22:12.529Z,53.02
2023-04-03T04:24:40.081Z,52.93
2023-04-03T04:27:08.463Z,52.77
2023-04-03T04:29:38.175Z,52.60
2023-04-03T04:32:06.178Z,53.16
2023-04-03T04:34:33.994Z,53.93
2023-04-03T04:37:02.002Z,54.46
2023-04-03T04:39:30.352Z,55.29
2023-04-03T04:41:58.283Z,54.23
2023-04-03T04:44:26.493Z,54.81
2023-04-03T04:46:54.306Z,54.53
2023-04-03T04:49:22.141Z,55.23
2023-04-03T04:51:52.324Z,56.50
2023-04-03T04:54:20.712Z,54.97
2023-04-03T04:56:48.852Z,55.78
2023-04-03T04:59:16.378Z,55.62
2023-04-03T05:01:44.022Z,55.92
2023-04-03T05:04:13.680Z,55.70
2023-04-03T05:06:41.410Z,55.84
2023-04-03T05:09:10.830Z,56.40
2023-04-03T05:11:38.984Z,56.34
2023-04-03T05:14:07.643Z,56.91
2023-04-03T05:16:35.824Z,57.55
2023-04-03T05:19:03.929Z,57.55
2023-04-03T05:21:33.502Z,56.66
2023-04-03T05:24:03.798Z,57.03
2023-04-03T05:26:32.831Z,57.28
2023-04-03T05:29:00.595Z,57.00
2023-04-03T05:31:30.524Z,57.08
2023-04-03T05:33:58.991Z,57.07
2023-04-03T05:36:27.262Z,56.34
2023-04-03T05:38:57.328Z,55.74
2023-04-03T05:41:26.178Z,54.70
2023-04-03T05:43:53.733Z,55.79
2023-04-03T05:46:22.134Z,56.32
2023-04-03T05:48:50.921Z,56.03
2023-04-03T05:51:21.503Z,56.40
2023-04-03T05:53:53.837Z,56.32
2023-04-03T05:56:21.652Z,56.45
2023-04-03T05:58:49.149Z,55.35
2023-04-03T06:01:17.137Z,55.96
2023-04-03T06:03:45.330Z,54.91
2023-04-03T06:06:15.041Z,54.97
2023-04-03T06:08:42.479Z,54.92
2023-04-03T06:11:10.526Z,54.05
2023-04-03T06:13:38.224Z,52.72
2023-04-03T06:16:06.614Z,51.73
2023-04-03T06:18:34.382Z,52.21
2023-04-03T06:21:03.728Z,52.98
2023-04-03T06:23:31.399Z,52.39
2023-04-03T06:25:59.293Z,51.56
2023-04-03T06:28:27.387Z,51.69
2023-04-03T06:30:54.856Z,51.12
2023-04-03T06:33:22.539Z,50.26
2023-04-03T06:35:49.963Z,48.89
2023-04-03T06:38:19.750Z,50.23
2023-04-03T06:40:48.161Z,48.94
2023-04-03T06:43:15.774Z,46.79
2023-04-03T06:45:43.120Z,46.54
2023-04-03T06:48:11.080Z,45.85
2023-04-03T06:50:38.519Z,45.62
2023-04-03T06:53:07.002Z,46.15
2023-04-03T06:55:34.691Z,46.87
2023-04-03T06:58:02.513Z,46.89
2023-04-03T07:00:30.350Z,46.88
2023-04-03T07:02:58.590Z,48.19
2023-04-03T07:05:26.986Z,48.00
2023-04-03T07:07:54.675Z,48.03
2023-04-03T07:10:22.325Z,49.61
2023-04-03T07:12:49.719Z,48.79
2023-04-03T07:15:17.177Z,47.44
2023-04-03T07:17:45.149Z,46.76
2023-04-03T07:20:12.771Z,46.85
2023-04-03T07:22:40.635Z,47.08
2023-04-03T07:25:08.567Z,47.47
2023-04-03T07:27:36.058Z,46.65
2023-04-03T07:30:04.127Z,47.29
2023-04-03T07:32:32.036Z,46.96
2023-04-03T07:35:00.570Z,46.69
2023-04-03T07:37:28.883Z,46.16
2023-04-03T07:39:58.147Z,45.87
2023-04-03T07:42:28.707Z,45.42
2023-04-03T07:44:56.416Z,44.44
2023-04-03T07:47:23.991Z,44.41
2023-04-03T07:49:51.409Z,43.89
2023-04-03T07:52:19.166Z,42.55
2023-04-03T07:54:46.586Z,41.20
2023-04-03T07:57:14.170Z,41.78
2023-04-03T07:59:43.616Z,41.28
2023-04-03T08:02:11.373Z,40.86
2023-04-03T08:04:39.440Z,40.81
2023-04-03T08:07:07.302Z,39.85
2023-04-03T08:09:34.745Z,39.25
2023-04-03T08:12:02.448Z,39.24
2023-04-03T08:14:32.378Z,40.83
2023-04-03T08:16:59.938Z,39.75
2023-04-03T08:19:27.837Z,39.07
2023-04-03T08:21:56.329Z,39.24
2023-04-03T08:24:24.072Z,38.43
2023-04-03T08:26:51.794Z,39.31
2023-04-03T08:29:19.264Z,39.02
2023-04-03T08:31:47.289Z,39.91
2023-04-03T08:34:15.650Z,39.61
2023-04-03T08:36:43.605Z,36.85
2023-04-03T08:39:11.632Z,38.03
2023-04-03T08:41:41.019Z,38.61
2023-04-03T08:44:34.148Z,38.66
2023-04-03T08:47:33.693Z,37.67
2023-04-03T08:50:10.624Z,36.88
2023-04-03T08:52:52.478Z,37.54
2023-04-03T08:55:29.716Z,37.67
2023-04-03T08:58:06.910Z,37.27
2023-04-03T09:00:57.364Z,36.90
2023-04-03T09:03:25.169Z,37.27
2023-04-03T09:06:08.188Z,36.52
2023-04-03T09:08:51.195Z,36.40
2023-04-03T09:11:33.795Z,36.14
2023-04-03T09:14:03.962Z,36.46
2023-04-03T09:16:38.032Z,35.77
2023-04-03T09:19:32.114Z,34.87
2023-04-03T09:22:04.413Z,34.28
2023-04-03T09:24:31.928Z,34.76
2023-04-03T09:27:09.036Z,35.86
2023-04-03T09:29:41.460Z,35.98
2023-04-03T09:32:27.370Z,36.03
2023-04-03T09:34:59.708Z,34.26
2023-04-03T09:37:44.974Z,33.35
2023-04-03T09:40:36.232Z,32.95
2023-04-03T09:43:22.839Z,33.73
2023-04-03T09:45:51.822Z,33.99
2023-04-03T09:48:24.692Z,33.52
2023-04-03T09:50:53.927Z,33.81
2023-04-03T09:53:30.275Z,34.17
2023-04-03T09:55:58.859Z,34.19
2023-04-03T09:58:46.783Z,34.00
2023-04-03T10:01:30.234Z,33.59
2023-04-03T10:04:05.560Z,33.69
2023-04-03T10:06:36.509Z,34.47
2023-04-03T10:09:07.419Z,34.18
2023-04-03T10:11:34.850Z,33.68
2023-04-03T10:14:04.253Z,33.57
2023-04-03T10:16:58.390Z,33.52
2023-04-03T10:19:29.442Z,33.55
2023-04-03T10:22:04.854Z,34.20
2023-04-03T10:24:41.432Z,34.56
2023-04-03T10:27:16.810Z,35.29
2023-04-03T10:29:53.222Z,34.90
2023-04-03T10:32:23.890Z,35.13
2023-04-03T10:35:04.679Z,35.04
2023-04-03T10:37:48.818Z,34.81
2023-04-03T10:40:26.025Z,35.12
2023-04-03T10:43:23.784Z,34.76
2023-04-03T10:45:58.588Z,35.56
2023-04-03T10:48:41.630Z,35.40
2023-04-03T10:51:31.273Z,35.26
2023-04-03T10:54:07.499Z,35.42
2023-04-03T10:56:53.285Z,35.31
2023-04-03T10:59:40.290Z,35.63
2023-04-03T11:02:32.516Z,36.39
2023-04-03T11:05:16.768Z,36.35
2023-04-03T11:07:48.325Z,36.31
2023-04-03T11:10:20.624Z,35.98
2023-04-03T11:12:51.522Z,36.14
2023-04-03T11:15:22.318Z,35.97
2023-04-03T11:17:55.150Z,36.47
2023-04-03T11:20:28.703Z,35.72
2023-04-03T11:23:13.381Z,35.54
2023-04-03T11:25:44.294Z,35.60
2023-04-03T11:28:14.492Z,35.00
2023-04-03T11:30:42.912Z,34.66
2023-04-03T11:33:21.823Z,35.54
2023-04-03T11:35:53.264Z,35.49
2023-04-03T11:38:27.597Z,35.25
2023-04-03T11:40:56.247Z,35.44
2023-04-03T11:43:33.901Z,34.90
2023-04-03T11:46:06.253Z,34.67
2023-04-03T11:48:36.847Z,34.39
2023-04-03T11:51:13.725Z,34.69
2023-04-03T11:53:41.831Z,34.62
2023-04-03T11:56:24.495Z,34.53
2023-04-03T11:59:10.614Z,34.26
2023-04-03T12:01:59.116Z,33.18
2023-04-03T12:04:28.652Z,34.30
2023-04-03T12:07:14.558Z,33.56
2023-04-03T12:09:43.045Z,33.82
2023-04-03T12:12:37.112Z,34.59
2023-04-03T12:15:23.255Z,34.84
2023-04-03T12:17:52.698Z,36.04
2023-04-03T12:20:52.333Z,35.04
2023-04-03T12:23:32.451Z,35.56
2023-04-03T12:26:05.028Z,34.17
2023-04-03T12:28:37.175Z,34.24
2023-04-03T12:31:05.369Z,33.40
2023-04-03T12:33:51.129Z,32.95
2023-04-03T12:36:38.909Z,33.76
2023-04-03T12:39:19.167Z,34.16
2023-04-03T12:41:54.436Z,33.85
2023-04-03T12:44:50.935Z,33.17
2023-04-03T12:47:37.122Z,33.37
2023-04-03T12:50:14.401Z,33.18
2023-04-03T12:52:46.577Z,33.34
2023-04-03T12:55:21.752Z,32.85
2023-04-03T12:57:49.702Z,32.61
2023-04-03T13:00:21.313Z,32.53
2023-04-03T13:02:49.191Z,32.71
2023-04-03T13:05:19.469Z,33.19
2023-04-03T13:07:51.341Z,31.89
2023-04-03T13:10:20.065Z,31.91
2023-04-03T13:12:48.925Z,31.61
2023-04-03T13:15:24.133Z,31.89
2023-04-03T13:17:53.752Z,31.37
2023-04-03T13:20:24.147Z,31.60
2023-04-03T13:23:07.548Z,33.24
2023-04-03T13:25:37.677Z,31.56
2023-04-03T13:28:14.046Z,31.92
2023-04-03T13:30:56.045Z,32.16
2023-04-03T13:33:26.496Z,31.75
2023-04-03T13:36:24.844Z,35.18
2023-04-03T13:39:06.391Z,36.04
2023-04-03T13:41:39.357Z,34.09
2023-04-03T13:44:22.122Z,32.76
2023-04-03T13:46:53.562Z,31.74
2023-04-03T13:49:28.458Z,31.96
2023-04-03T13:52:07.479Z,33.69
2023-04-03T13:54:38.568Z,32.46
2023-04-03T13:57:16.031Z,31.11
2023-04-03T13:59:46.656Z,32.86
2023-04-03T14:02:24.774Z,32.33
2023-04-03T14:05:00.903Z,32.17
2023-04-03T14:07:30.483Z,32.23
2023-04-03T14:09:58.280Z,32.18
2023-04-03T14:12:31.935Z,33.01
2023-04-03T14:15:02.161Z,33.22
2023-04-03T14:17:30.065Z,33.52
2023-04-03T14:19:59.117Z,33.92
2023-04-03T14:22:32.442Z,34.25
2023-04-03T14:25:00.456Z,35.06
2023-04-03T14:27:38.541Z,36.00
2023-04-03T14:30:10.645Z,35.17
2023-04-03T14:32:38.273Z,34.53
2023-04-03T14:35:06.173Z,34.97
2023-04-03T14:37:34.540Z,36.69
2023-04-03T14:40:04.771Z,36.67
2023-04-03T14:42:34.935Z,36.65
2023-04-03T14:45:05.075Z,36.61
2023-04-03T14:47:33.160Z,36.46
2023-04-03T14:50:02.407Z,36.29
2023-04-03T14:52:33.567Z,35.95
2023-04-03T14:55:01.850Z,36.45
2023-04-03T14:57:30.655Z,36.08
2023-04-03T14:59:58.796Z,36.21
2023-04-03T15:02:31.323Z,35.72
2023-04-03T15:05:00.184Z,34.94
2023-04-03T15:07:29.827Z,35.62
2023-04-03T15:09:57.620Z,35.67
2023-04-03T15:12:25.823Z,36.05
2023-04-03T15:15:00.843Z,36.12
2023-04-03T15:17:30.955Z,35.70
2023-04-03T15:19:59.284Z,35.79
2023-04-03T15:22:26.714Z,35.87
2023-04-03T15:24:54.640Z,35.85
2023-04-03T15:27:22.340Z,35.59
2023-04-03T15:29:49.782Z,35.80
2023-04-03T15:32:17.553Z,36.28
2023-04-03T15:34:45.188Z,35.37
2023-04-03T15:37:12.590Z,36.87
2023-04-03T15:39:40.272Z,35.95
2023-04-03T15:42:07.691Z,36.65
2023-04-03T15:44:35.896Z,35.96
2023-04-03T15:47:03.987Z,35.17
2023-04-03T15:49:33.932Z,35.57
2023-04-03T15:52:01.774Z,35.72
2023-04-03T15:54:30.540Z,35.54
2023-04-03T15:56:58.202Z,35.33
2023-04-03T15:59:25.932Z,35.89
2023-04-03T16:01:53.956Z,35.94
2023-04-03T16:04:22.144Z,35.63
2023-04-03T16:06:50.047Z,35.47
2023-04-03T16:09:17.711Z,36.08
2023-04-03T16:11:45.448Z,35.64
2023-04-03T16:14:12.930Z,35.13
2023-04-03T16:16:40.508Z,35.24
2023-04-03T16:19:08.443Z,35.46
2023-04-03T16:21:35.901Z,35.43
2023-04-03T16:24:03.421Z,35.43
2023-04-03T16:26:31.228Z,35.51
2023-04-03T16:28:58.643Z,35.13
2023-04-03T16:31:26.503Z,35.45
2023-04-03T16:33:54.374Z,34.59
2023-04-03T16:36:21.996Z,34.81
2023-04-03T16:38:49.745Z,34.95
2023-04-03T16:41:17.409Z,35.13
2023-04-03T16:43:44.828Z,34.64
2023-04-03T16:46:12.321Z,34.79
2023-04-03T16:48:40.109Z,34.42
2023-04-03T16:51:07.564Z,34.36
2023-04-03T16:53:35.069Z,34.53
2023-04-03T16:56:02.838Z,34.40
2023-04-03T16:58:30.223Z,34.63
2023-04-03T17:00:57.708Z,34.42
2023-04-03T17:03:26.782Z,34.35
2023-04-03T17:05:54.503Z,34.17
2023-04-03T17:08:21.912Z,33.90
2023-04-03T17:10:51.646Z,33.29
2023-04-03T17:13:19.018Z,32.63
2023-04-03T17:15:46.414Z,32.49
2023-04-03T17:18:14.318Z,32.91
2023-04-03T17:20:41.730Z,33.12
2023-04-03T17:23:09.148Z,34.06
2023-04-03T17:25:36.871Z,34.48
2023-04-03T17:28:04.574Z,34.70
2023-04-03T17:30:32.203Z,33.74
2023-04-03T17:32:59.957Z,34.02
2023-04-03T17:35:27.370Z,33.64
2023-04-03T17:37:54.799Z,33.69
2023-04-03T17:40:22.796Z,33.09
2023-04-03T17:42:50.544Z,33.29
2023-04-03T17:45:18.094Z,33.44
2023-04-03T17:47:46.618Z,33.44
2023-04-03T17:50:16.302Z,33.45
2023-04-03T17:52:43.782Z,33.14
2023-04-03T17:55:13.097Z,32.82
2023-04-03T17:57:40.548Z,32.84
2023-04-03T18:00:09.325Z,33.06
2023-04-03T18:02:39.953Z,33.25
2023-04-03T18:05:10.079Z,33.13
2023-04-03T18:07:38.654Z,33.85
2023-04-03T18:10:08.654Z,34.02
2023-04-03T18:12:37.468Z,33.92
2023-04-03T18:15:05.592Z,33.44
2023-04-03T18:17:32.913Z,33.79
2023-04-03T18:20:00.670Z,33.98
2023-04-03T18:22:29.139Z,33.87
2023-04-03T18:24:57.022Z,33.50
2023-04-03T18:27:26.686Z,33.84
2023-04-03T18:29:57.427Z,33.88
2023-04-03T18:32:25.427Z,33.62
2023-04-03T18:34:52.904Z,33.65
2023-04-03T18:37:21.702Z,33.97
2023-04-03T18:39:49.436Z,33.16
2023-04-03T18:42:19.923Z,32.27
2023-04-03T18:44:51.817Z,33.13
2023-04-03T18:47:19.491Z,32.86
2023-04-03T18:49:46.962Z,32.19
2023-04-03T18:52:14.712Z,32.00
2023-04-03T18:54:43.349Z,32.12
2023-04-03T18:57:10.723Z,31.60
2023-04-03T18:59:38.639Z,32.70
2023-04-03T19:02:07.604Z,32.48
2023-04-03T19:04:35.392Z,32.16
2023-04-03T19:07:05.495Z,33.27
2023-04-03T19:09:33.606Z,32.82
2023-04-03T19:12:02.022Z,33.07
2023-04-03T19:14:29.474Z,33.05
2023-04-03T19:16:57.482Z,32.95
2023-04-03T19:19:25.088Z,40.32
2023-04-03T19:21:52.482Z,32.26
2023-04-03T19:24:21.593Z,31.64
2023-04-03T19:26:48.946Z,32.04
2023-04-03T19:29:16.636Z,32.37
2023-04-03T19:31:44.384Z,31.04
2023-04-03T19:34:11.899Z,32.01
2023-04-03T19:36:39.576Z,32.99
2023-04-03T19:39:07.695Z,31.16
2023-04-03T19:41:36.715Z,31.21
2023-04-03T19:44:05.790Z,31.60
2023-04-03T19:46:34.303Z,31.53
2023-04-03T19:49:02.010Z,31.62
2023-04-03T19:51:29.531Z,31.39
2023-04-03T19:53:57.310Z,30.92
2023-04-03T19:56:24.681Z,30.75
2023-04-03T19:58:54.162Z,30.83
2023-04-03T20:01:24.268Z,30.10
2023-04-03T20:03:52.373Z,30.39
2023-04-03T20:06:19.894Z,30.99
2023-04-03T20:08:47.479Z,30.79
2023-04-03T20:11:15.390Z,30.73
2023-04-03T20:13:42.889Z,30.46
2023-04-03T20:16:10.419Z,30.94
2023-04-03T20:18:38.733Z,31.41
2023-04-03T20:21:07.552Z,31.33
2023-04-03T20:23:37.195Z,30.74
2023-04-03T20:26:13.848Z,31.09
2023-04-03T20:28:43.235Z,30.74
2023-04-03T20:31:13.695Z,30.88
2023-04-03T20:33:41.433Z,30.59
2023-04-03T20:36:09.114Z,30.88
2023-04-03T20:38:36.795Z,31.00
2023-04-03T20:41:04.929Z,31.49
2023-04-03T20:43:32.390Z,30.36
2023-04-03T20:46:01.554Z,30.73
2023-04-03T20:48:31.175Z,30.81
2023-04-03T20:50:59.215Z,30.41
2023-04-03T20:53:27.626Z,30.12
2023-04-03T20:55:59.978Z,30.76
2023-04-03T20:58:30.477Z,30.57
2023-04-03T21:00:58.437Z,30.11
2023-04-03T21:03:32.918Z,29.75
2023-04-03T21:06:00.821Z,30.04
2023-04-03T21:09:06.658Z,29.80
2023-04-03T21:12:12.120Z,29.81
2023-04-03T21:15:17.460Z,30.06
2023-04-03T21:18:16.927Z,29.36
2023-04-03T21:20:47.396Z,28.91
2023-04-03T21:23:15.706Z,29.40
2023-04-03T21:25:43.211Z,29.41
2023-04-03T21:28:10.585Z,29.50
2023-04-03T21:30:38.586Z,29.82
2023-04-03T21:33:05.999Z,29.57
2023-04-03T21:35:33.574Z,29.64
2023-04-03T21:38:01.303Z,29.72
2023-04-03T21:40:28.714Z,29.53
2023-04-03T21:42:56.283Z,29.88
2023-04-03T21:45:24.143Z,29.57
2023-04-03T21:47:51.975Z,29.58
2023-04-03T21:50:19.572Z,30.23
2023-04-03T21:52:47.310Z,30.17
2023-04-03T21:55:15.475Z,30.32
2023-04-03T21:57:43.576Z,29.94
2023-04-03T22:00:11.763Z,29.87
2023-04-03T22:02:40.892Z,30.07
2023-04-03T22:05:08.386Z,30.22
2023-04-03T22:07:35.775Z,29.82
2023-04-03T22:10:04.430Z,29.99
2023-04-03T22:12:32.622Z,29.80
2023-04-03T22:15:00.475Z,29.65
2023-04-03T22:17:31.312Z,30.09
2023-04-03T22:19:58.764Z,30.04
2023-04-03T22:22:26.498Z,30.25
2023-04-03T22:24:55.557Z,30.33
2023-04-03T22:27:23.087Z,29.87
2023-04-03T22:29:50.552Z,29.75
2023-04-03T22:32:18.298Z,30.44
2023-04-03T22:34:46.376Z,30.28
2023-04-03T22:37:13.767Z,30.47
2023-04-03T22:39:41.456Z,30.94
2023-04-03T22:42:08.828Z,29.84
2023-04-03T22:44:36.663Z,30.23
2023-04-03T22:47:04.608Z,30.57
2023-04-03T22:49:32.118Z,30.29
2023-04-03T22:51:59.657Z,30.64
2023-04-03T22:54:27.494Z,30.75
2023-04-03T22:56:55.495Z,30.36
2023-04-03T22:59:22.936Z,30.15
2023-04-03T23:01:50.661Z,30.36
2023-04-03T23:04:18.341Z,30.93
2023-04-03T23:06:45.731Z,30.48
2023-04-03T23:09:13.446Z,30.30
2023-04-03T23:11:40.863Z,30.62
2023-04-03T23:14:08.306Z,30.92
2023-04-03T23:16:36.037Z,30.60
2023-04-03T23:19:03.559Z,31.05
2023-04-03T23:21:31.007Z,31.07
2023-04-03T23:23:58.645Z,31.11
2023-04-03T23:26:26.493Z,30.94
2023-04-03T23:28:53.962Z,31.13
2023-04-03T23:31:22.766Z,30.35
2023-04-03T23:33:50.325Z,30.60
2023-04-03T23:36:17.736Z,31.04
2023-04-03T23:38:45.460Z,31.29
2023-04-03T23:41:13.110Z,31.36
2023-04-03T23:43:41.590Z,31.17
2023-04-03T23:46:09.590Z,30.77
2023-04-03T23:48:37.054Z,30.86
2023-04-03T23:51:04.693Z,31.39
2023-04-03T23:53:32.429Z,31.42
2023-04-03T23:56:00.172Z,31.32
2023-04-03T23:58:27.578Z,31.98
